Hawaii Volcanoes National Park, HI

12:52 AM HST on August 29, 2014 (GMT -1000)
Bradshaw Army Air Field | Change Station
CLOSE
Current Station
Airport
Location: Bradshaw AFB,
Elevation: 6191 ft
Nearby Weather Stations
Active Advisory: High Surf Advisory

Elev 6191 ft 19.76 °N, 155.55 °W | Updated 56 minutes ago

Mostly Cloudy
Mostly Cloudy
54 °F
Feels Like 54 °F
N
2
Wind Variable Wind from North

Today
High -- | Low -- °F
--% Chance of Precip.
Yesterday
High -- | Low -- °F
Precip. -- in
6:05 AM 6:38 PM
Waxing Crescent, 13% visible
Pressure 29.89 in
Visibility 12.0 miles
Clouds Few 100 ft
Mostly Cloudy 500 ft
Dew Point 52 °F
Humidity 93%
Rainfall 0.00 in
Snow Depth Not available.
UV 0 out of 12
Pollen Not available.
Air Quality Not available.
Flu Activity Not available.
METAR PHSF 290956Z AUTO 35002KT 12SM FEW001 BKN005 12/11 A3024 RMK AO2 SLP122 T01230112 402220052

More Conditions Fewer Conditions

Pressure 29.89 in
Visibility 12.0 miles
Clouds Few 100 ft
Mostly Cloudy 500 ft
Dew Point 52 °F
Humidity 93%
Rainfall 0.00 in
Snow Depth Not available.
UV 0 out of 12
Pollen Not available.
Air Quality Not available.
Flu Activity Not available.
METAR PHSF 290956Z AUTO 35002KT 12SM FEW001 BKN005 12/11 A3024 RMK AO2 SLP122 T01230112 402220052

More Conditions Fewer Conditions

10-Day Weather Forecast

Almanac

Astronomy

Aug. 29, 2014 Rise Set
Actual Time 6:05 AM HST 6:38 PM HST
Civil Twilight 5:42 AM HST 7:00 PM HST
Nautical Twilight 5:16 AM HST 7:26 PM HST
Astronomical Twilight 4:50 AM HST 7:53 PM HST
Moon 9:28 AM HST 9:22 PM HST
Length of Visible Light 13h 17m
Length of Day
12h 32m
Tomorrow will be 1m 3s shorter.
Waxing Crescent, 13% of the Moon is Illuminated
Today
Waxing Crescent
Sep 2
First Quarter
Sep 8
Full
Sep 15
Last Quarter
Sep 24
New

Today's Extremes

State Highs State Lows

Community

WunderPhotos

Upload Photos

1,748,208 photos uploaded!

Nearby

Snow Depth

Station Depth Elevation
No new snow has been reported.

Earthquake Activity

City Distance Mag. Time & Date
No recent earthquake activity has been reported nearby.
Minimum magnitude displayed is 2.5.

Coastal Water Temperatures

Place Temperature
No Stations Reporting

Nearby Weather Stations